sensor_id;sensor_type;location;lat;lon;timestamp;P1;durP1;ratioP1;P2;durP2;ratioP2
12141;SDS011;6134;59.284;18.022;2023-02-11T00:01:10;0.98;;;0.80;;
12141;SDS011;6134;59.284;18.022;2023-02-11T00:03:39;0.68;;;0.68;;
12141;SDS011;6134;59.284;18.022;2023-02-11T00:06:09;2.33;;;0.80;;
12141;SDS011;6134;59.284;18.022;2023-02-11T00:08:38;0.90;;;0.82;;
12141;SDS011;6134;59.284;18.022;2023-02-11T00:11:09;1.33;;;0.85;;
12141;SDS011;6134;59.284;18.022;2023-02-11T00:13:39;2.00;;;0.88;;
12141;SDS011;6134;59.284;18.022;2023-02-11T00:16:11;2.05;;;1.13;;
12141;SDS011;6134;59.284;18.022;2023-02-11T00:18:40;3.42;;;1.23;;
12141;SDS011;6134;59.284;18.022;2023-02-11T00:21:10;2.40;;;1.10;;
12141;SDS011;6134;59.284;18.022;2023-02-11T00:23:39;1.90;;;1.10;;
12141;SDS011;6134;59.284;18.022;2023-02-11T00:26:10;1.48;;;1.08;;
12141;SDS011;6134;59.284;18.022;2023-02-11T00:28:41;2.55;;;0.95;;
12141;SDS011;6134;59.284;18.022;2023-02-11T00:31:11;1.77;;;1.30;;
12141;SDS011;6134;59.284;18.022;2023-02-11T00:33:40;1.20;;;0.95;;
12141;SDS011;6134;59.284;18.022;2023-02-11T00:36:11;1.90;;;1.00;;
12141;SDS011;6134;59.284;18.022;2023-02-11T00:38:41;3.20;;;1.10;;
12141;SDS011;6134;59.284;18.022;2023-02-11T00:41:10;1.52;;;1.23;;
12141;SDS011;6134;59.284;18.022;2023-02-11T00:43:39;1.30;;;1.20;;
12141;SDS011;6134;59.284;18.022;2023-02-11T00:46:08;1.35;;;1.13;;
12141;SDS011;6134;59.284;18.022;2023-02-11T00:48:38;4.18;;;1.38;;
12141;SDS011;6134;59.284;18.022;2023-02-11T00:51:07;1.48;;;1.35;;
12141;SDS011;6134;59.284;18.022;2023-02-11T00:53:36;1.38;;;1.15;;
12141;SDS011;6134;59.284;18.022;2023-02-11T00:56:05;2.63;;;1.17;;
12141;SDS011;6134;59.284;18.022;2023-02-11T00:58:34;3.55;;;1.60;;
12141;SDS011;6134;59.284;18.022;2023-02-11T01:01:03;1.50;;;1.30;;
12141;SDS011;6134;59.284;18.022;2023-02-11T01:03:33;3.42;;;1.42;;
12141;SDS011;6134;59.284;18.022;2023-02-11T01:06:04;1.50;;;1.20;;
12141;SDS011;6134;59.284;18.022;2023-02-11T01:08:35;1.90;;;1.45;;
12141;SDS011;6134;59.284;18.022;2023-02-11T01:11:05;1.58;;;1.35;;
12141;SDS011;6134;59.284;18.022;2023-02-11T01:13:34;1.30;;;1.20;;
12141;SDS011;6134;59.284;18.022;2023-02-11T01:16:05;3.55;;;1.35;;
12141;SDS011;6134;59.284;18.022;2023-02-11T01:18:34;4.35;;;1.65;;
12141;SDS011;6134;59.284;18.022;2023-02-11T01:21:05;3.08;;;1.42;;
12141;SDS011;6134;59.284;18.022;2023-02-11T01:23:33;3.13;;;1.38;;
12141;SDS011;6134;59.284;18.022;2023-02-11T01:26:03;2.55;;;1.50;;
12141;SDS011;6134;59.284;18.022;2023-02-11T01:28:32;3.78;;;1.60;;
12141;SDS011;6134;59.284;18.022;2023-02-11T01:31:01;1.30;;;1.20;;
12141;SDS011;6134;59.284;18.022;2023-02-11T01:33:31;5.60;;;1.67;;
12141;SDS011;6134;59.284;18.022;2023-02-11T01:36:00;4.35;;;1.45;;
12141;SDS011;6134;59.284;18.022;2023-02-11T01:38:31;5.03;;;1.38;;
12141;SDS011;6134;59.284;18.022;2023-02-11T01:41:01;3.70;;;2.20;;
12141;SDS011;6134;59.284;18.022;2023-02-11T01:43:30;2.75;;;1.48;;
12141;SDS011;6134;59.284;18.022;2023-02-11T01:46:01;2.78;;;1.35;;
12141;SDS011;6134;59.284;18.022;2023-02-11T01:48:33;3.83;;;1.58;;
12141;SDS011;6134;59.284;18.022;2023-02-11T01:51:03;2.90;;;1.80;;
12141;SDS011;6134;59.284;18.022;2023-02-11T01:53:35;2.83;;;1.60;;
12141;SDS011;6134;59.284;18.022;2023-02-11T01:56:23;2.28;;;1.52;;
12141;SDS011;6134;59.284;18.022;2023-02-11T01:59:11;2.45;;;1.73;;
12141;SDS011;6134;59.284;18.022;2023-02-11T02:01:42;4.43;;;1.70;;
12141;SDS011;6134;59.284;18.022;2023-02-11T02:04:14;3.95;;;1.73;;
12141;SDS011;6134;59.284;18.022;2023-02-11T02:06:47;2.17;;;1.98;;
12141;SDS011;6134;59.284;18.022;2023-02-11T02:09:21;4.63;;;2.05;;
12141;SDS011;6134;59.284;18.022;2023-02-11T02:11:50;3.03;;;2.35;;
12141;SDS011;6134;59.284;18.022;2023-02-11T02:14:19;4.25;;;2.03;;
12141;SDS011;6134;59.284;18.022;2023-02-11T02:16:51;5.10;;;2.10;;
12141;SDS011;6134;59.284;18.022;2023-02-11T02:19:35;2.97;;;2.20;;
12141;SDS011;6134;59.284;18.022;2023-02-11T02:22:31;2.13;;;1.98;;
12141;SDS011;6134;59.284;18.022;2023-02-11T02:27:54;5.40;;;2.10;;
12141;SDS011;6134;59.284;18.022;2023-02-11T02:33:18;7.03;;;1.98;;
12141;SDS011;6134;59.284;18.022;2023-02-11T02:35:52;2.25;;;1.77;;
12141;SDS011;6134;59.284;18.022;2023-02-11T02:38:22;3.72;;;1.60;;
12141;SDS011;6134;59.284;18.022;2023-02-11T02:40:52;3.03;;;1.70;;
12141;SDS011;6134;59.284;18.022;2023-02-11T02:43:23;5.75;;;2.15;;
12141;SDS011;6134;59.284;18.022;2023-02-11T02:45:53;2.90;;;2.05;;
12141;SDS011;6134;59.284;18.022;2023-02-11T02:48:24;4.65;;;1.83;;
12141;SDS011;6134;59.284;18.022;2023-02-11T02:50:56;4.22;;;1.75;;
12141;SDS011;6134;59.284;18.022;2023-02-11T02:53:31;2.85;;;1.42;;
12141;SDS011;6134;59.284;18.022;2023-02-11T02:56:07;5.13;;;1.90;;
12141;SDS011;6134;59.284;18.022;2023-02-11T03:01:25;4.15;;;1.33;;
12141;SDS011;6134;59.284;18.022;2023-02-11T03:03:58;4.78;;;1.50;;
12141;SDS011;6134;59.284;18.022;2023-02-11T03:06:29;3.35;;;1.25;;
12141;SDS011;6134;59.284;18.022;2023-02-11T03:09:00;4.13;;;1.25;;
12141;SDS011;6134;59.284;18.022;2023-02-11T03:11:31;5.57;;;1.77;;
12141;SDS011;6134;59.284;18.022;2023-02-11T03:14:01;1.88;;;1.20;;
12141;SDS011;6134;59.284;18.022;2023-02-11T03:16:30;2.80;;;1.20;;
12141;SDS011;6134;59.284;18.022;2023-02-11T03:19:12;3.28;;;1.20;;
12141;SDS011;6134;59.284;18.022;2023-02-11T03:21:42;3.22;;;1.33;;
12141;SDS011;6134;59.284;18.022;2023-02-11T03:24:13;2.33;;;1.13;;
12141;SDS011;6134;59.284;18.022;2023-02-11T03:26:45;4.10;;;1.48;;
12141;SDS011;6134;59.284;18.022;2023-02-11T03:29:17;3.25;;;1.60;;
12141;SDS011;6134;59.284;18.022;2023-02-11T03:31:50;4.18;;;1.23;;
12141;SDS011;6134;59.284;18.022;2023-02-11T03:34:22;1.90;;;1.33;;
12141;SDS011;6134;59.284;18.022;2023-02-11T03:36:56;2.33;;;1.42;;
12141;SDS011;6134;59.284;18.022;2023-02-11T03:39:28;2.35;;;1.15;;
12141;SDS011;6134;59.284;18.022;2023-02-11T03:41:58;3.33;;;1.27;;
12141;SDS011;6134;59.284;18.022;2023-02-11T03:44:29;1.90;;;1.10;;
12141;SDS011;6134;59.284;18.022;2023-02-11T03:46:58;2.33;;;1.30;;
12141;SDS011;6134;59.284;18.022;2023-02-11T03:49:30;2.22;;;1.10;;
12141;SDS011;6134;59.284;18.022;2023-02-11T03:52:00;3.40;;;1.00;;
12141;SDS011;6134;59.284;18.022;2023-02-11T03:54:31;2.33;;;1.08;;
12141;SDS011;6134;59.284;18.022;2023-02-11T03:57:00;0.73;;;0.65;;
12141;SDS011;6134;59.284;18.022;2023-02-11T03:59:29;1.77;;;0.70;;
12141;SDS011;6134;59.284;18.022;2023-02-11T04:01:58;0.60;;;0.50;;
12141;SDS011;6134;59.284;18.022;2023-02-11T04:04:26;0.82;;;0.60;;
12141;SDS011;6134;59.284;18.022;2023-02-11T04:06:57;2.05;;;0.60;;
12141;SDS011;6134;59.284;18.022;2023-02-11T04:09:26;0.75;;;0.60;;
12141;SDS011;6134;59.284;18.022;2023-02-11T04:11:54;1.13;;;0.70;;
12141;SDS011;6134;59.284;18.022;2023-02-11T04:14:23;1.75;;;1.10;;
12141;SDS011;6134;59.284;18.022;2023-02-11T04:16:52;0.65;;;0.50;;
12141;SDS011;6134;59.284;18.022;2023-02-11T04:19:21;0.82;;;0.63;;
12141;SDS011;6134;59.284;18.022;2023-02-11T04:21:50;1.40;;;0.60;;
12141;SDS011;6134;59.284;18.022;2023-02-11T04:24:20;0.65;;;0.63;;
12141;SDS011;6134;59.284;18.022;2023-02-11T04:26:48;1.08;;;0.60;;
12141;SDS011;6134;59.284;18.022;2023-02-11T04:29:18;1.50;;;0.68;;
12141;SDS011;6134;59.284;18.022;2023-02-11T04:31:46;0.80;;;0.50;;
12141;SDS011;6134;59.284;18.022;2023-02-11T04:34:15;1.50;;;0.90;;
12141;SDS011;6134;59.284;18.022;2023-02-11T04:36:44;1.67;;;0.73;;
12141;SDS011;6134;59.284;18.022;2023-02-11T04:39:13;2.75;;;0.65;;
12141;SDS011;6134;59.284;18.022;2023-02-11T04:41:44;0.90;;;0.80;;
12141;SDS011;6134;59.284;18.022;2023-02-11T04:44:12;3.08;;;0.80;;
12141;SDS011;6134;59.284;18.022;2023-02-11T04:46:41;0.50;;;0.50;;
12141;SDS011;6134;59.284;18.022;2023-02-11T04:49:10;1.60;;;0.60;;
12141;SDS011;6134;59.284;18.022;2023-02-11T04:51:40;1.15;;;0.57;;
12141;SDS011;6134;59.284;18.022;2023-02-11T04:54:13;1.65;;;0.70;;
12141;SDS011;6134;59.284;18.022;2023-02-11T04:56:44;3.35;;;0.70;;
12141;SDS011;6134;59.284;18.022;2023-02-11T04:59:12;2.10;;;0.70;;
12141;SDS011;6134;59.284;18.022;2023-02-11T05:01:41;2.75;;;0.63;;
12141;SDS011;6134;59.284;18.022;2023-02-11T05:04:10;0.63;;;0.63;;
12141;SDS011;6134;59.284;18.022;2023-02-11T05:06:39;1.25;;;0.73;;
12141;SDS011;6134;59.284;18.022;2023-02-11T05:09:08;0.60;;;0.50;;
12141;SDS011;6134;59.284;18.022;2023-02-11T05:11:37;1.63;;;0.73;;
12141;SDS011;6134;59.284;18.022;2023-02-11T05:14:07;0.57;;;0.57;;
12141;SDS011;6134;59.284;18.022;2023-02-11T05:16:36;1.60;;;0.70;;
12141;SDS011;6134;59.284;18.022;2023-02-11T05:19:05;1.67;;;0.80;;
12141;SDS011;6134;59.284;18.022;2023-02-11T05:21:34;2.95;;;0.98;;
12141;SDS011;6134;59.284;18.022;2023-02-11T05:24:02;2.47;;;0.70;;
12141;SDS011;6134;59.284;18.022;2023-02-11T05:26:31;2.97;;;0.80;;
12141;SDS011;6134;59.284;18.022;2023-02-11T05:29:00;1.52;;;0.70;;
12141;SDS011;6134;59.284;18.022;2023-02-11T05:31:30;1.50;;;0.77;;
12141;SDS011;6134;59.284;18.022;2023-02-11T05:33:59;0.88;;;0.60;;
12141;SDS011;6134;59.284;18.022;2023-02-11T05:36:29;1.80;;;0.75;;
12141;SDS011;6134;59.284;18.022;2023-02-11T05:38:59;1.30;;;0.70;;
12141;SDS011;6134;59.284;18.022;2023-02-11T05:41:27;1.73;;;0.80;;
12141;SDS011;6134;59.284;18.022;2023-02-11T05:43:56;0.68;;;0.63;;
12141;SDS011;6134;59.284;18.022;2023-02-11T05:46:25;4.22;;;1.10;;
12141;SDS011;6134;59.284;18.022;2023-02-11T05:48:56;1.38;;;0.50;;
12141;SDS011;6134;59.284;18.022;2023-02-11T05:51:25;1.08;;;0.52;;
12141;SDS011;6134;59.284;18.022;2023-02-11T05:53:53;2.30;;;0.77;;
12141;SDS011;6134;59.284;18.022;2023-02-11T05:56:22;1.13;;;0.68;;
12141;SDS011;6134;59.284;18.022;2023-02-11T05:58:51;1.05;;;0.77;;
12141;SDS011;6134;59.284;18.022;2023-02-11T06:01:19;2.25;;;0.90;;
12141;SDS011;6134;59.284;18.022;2023-02-11T06:03:48;1.30;;;0.82;;
12141;SDS011;6134;59.284;18.022;2023-02-11T06:06:19;1.55;;;0.80;;
12141;SDS011;6134;59.284;18.022;2023-02-11T06:08:47;1.98;;;0.75;;
12141;SDS011;6134;59.284;18.022;2023-02-11T06:11:16;2.35;;;0.82;;
12141;SDS011;6134;59.284;18.022;2023-02-11T06:13:45;1.88;;;1.00;;
12141;SDS011;6134;59.284;18.022;2023-02-11T06:16:14;1.67;;;1.20;;
12141;SDS011;6134;59.284;18.022;2023-02-11T06:18:43;2.35;;;0.80;;
12141;SDS011;6134;59.284;18.022;2023-02-11T06:21:12;3.75;;;1.00;;
12141;SDS011;6134;59.284;18.022;2023-02-11T06:23:42;2.83;;;0.98;;
12141;SDS011;6134;59.284;18.022;2023-02-11T06:26:15;1.00;;;0.90;;
12141;SDS011;6134;59.284;18.022;2023-02-11T06:28:44;1.25;;;0.77;;
12141;SDS011;6134;59.284;18.022;2023-02-11T06:31:13;4.10;;;1.10;;
12141;SDS011;6134;59.284;18.022;2023-02-11T06:33:42;2.13;;;0.90;;
12141;SDS011;6134;59.284;18.022;2023-02-11T06:36:11;1.85;;;0.90;;
12141;SDS011;6134;59.284;18.022;2023-02-11T06:38:42;2.30;;;1.00;;
12141;SDS011;6134;59.284;18.022;2023-02-11T06:41:11;2.00;;;0.90;;
12141;SDS011;6134;59.284;18.022;2023-02-11T06:43:40;0.82;;;0.73;;
12141;SDS011;6134;59.284;18.022;2023-02-11T06:46:09;4.18;;;1.02;;
12141;SDS011;6134;59.284;18.022;2023-02-11T06:48:37;2.25;;;1.08;;
12141;SDS011;6134;59.284;18.022;2023-02-11T06:51:11;2.80;;;0.70;;
12141;SDS011;6134;59.284;18.022;2023-02-11T06:53:42;3.72;;;1.00;;
12141;SDS011;6134;59.284;18.022;2023-02-11T06:56:12;2.35;;;0.60;;
12141;SDS011;6134;59.284;18.022;2023-02-11T06:58:41;1.13;;;0.80;;
12141;SDS011;6134;59.284;18.022;2023-02-11T07:01:11;1.15;;;0.80;;
12141;SDS011;6134;59.284;18.022;2023-02-11T07:03:41;2.28;;;1.10;;
12141;SDS011;6134;59.284;18.022;2023-02-11T07:06:11;2.13;;;1.17;;
12141;SDS011;6134;59.284;18.022;2023-02-11T07:08:41;1.88;;;0.80;;
12141;SDS011;6134;59.284;18.022;2023-02-11T07:11:12;2.08;;;1.02;;
12141;SDS011;6134;59.284;18.022;2023-02-11T07:13:41;3.00;;;1.15;;
12141;SDS011;6134;59.284;18.022;2023-02-11T07:16:10;2.15;;;1.15;;
12141;SDS011;6134;59.284;18.022;2023-02-11T07:18:39;2.03;;;1.10;;
12141;SDS011;6134;59.284;18.022;2023-02-11T07:21:09;3.58;;;1.00;;
12141;SDS011;6134;59.284;18.022;2023-02-11T07:23:38;2.22;;;0.88;;
12141;SDS011;6134;59.284;18.022;2023-02-11T07:26:09;1.35;;;1.00;;
12141;SDS011;6134;59.284;18.022;2023-02-11T07:28:39;3.17;;;1.20;;
12141;SDS011;6134;59.284;18.022;2023-02-11T07:31:08;2.00;;;1.25;;
12141;SDS011;6134;59.284;18.022;2023-02-11T07:33:37;1.42;;;1.10;;
12141;SDS011;6134;59.284;18.022;2023-02-11T07:36:06;3.40;;;1.00;;
12141;SDS011;6134;59.284;18.022;2023-02-11T07:38:36;2.60;;;1.00;;
12141;SDS011;6134;59.284;18.022;2023-02-11T07:41:05;3.08;;;1.10;;
12141;SDS011;6134;59.284;18.022;2023-02-11T07:43:36;3.58;;;1.27;;
12141;SDS011;6134;59.284;18.022;2023-02-11T07:46:05;3.75;;;1.10;;
12141;SDS011;6134;59.284;18.022;2023-02-11T07:48:34;1.55;;;1.08;;
12141;SDS011;6134;59.284;18.022;2023-02-11T07:51:04;3.13;;;1.27;;
12141;SDS011;6134;59.284;18.022;2023-02-11T07:53:33;1.77;;;0.90;;
12141;SDS011;6134;59.284;18.022;2023-02-11T07:56:01;3.58;;;1.00;;
12141;SDS011;6134;59.284;18.022;2023-02-11T07:58:31;3.35;;;1.30;;
12141;SDS011;6134;59.284;18.022;2023-02-11T08:01:02;3.45;;;1.27;;
12141;SDS011;6134;59.284;18.022;2023-02-11T08:03:31;4.30;;;1.92;;
12141;SDS011;6134;59.284;18.022;2023-02-11T08:06:02;1.63;;;1.00;;
12141;SDS011;6134;59.284;18.022;2023-02-11T08:08:31;3.35;;;1.17;;
12141;SDS011;6134;59.284;18.022;2023-02-11T08:11:04;3.53;;;1.60;;
12141;SDS011;6134;59.284;18.022;2023-02-11T08:13:33;1.25;;;0.90;;
12141;SDS011;6134;59.284;18.022;2023-02-11T08:16:03;3.55;;;1.25;;
12141;SDS011;6134;59.284;18.022;2023-02-11T08:18:32;2.15;;;1.23;;
12141;SDS011;6134;59.284;18.022;2023-02-11T08:21:04;2.35;;;1.40;;
12141;SDS011;6134;59.284;18.022;2023-02-11T08:23:34;2.10;;;1.15;;
12141;SDS011;6134;59.284;18.022;2023-02-11T08:26:04;4.60;;;1.42;;
12141;SDS011;6134;59.284;18.022;2023-02-11T08:28:33;3.50;;;1.63;;
12141;SDS011;6134;59.284;18.022;2023-02-11T08:31:05;5.53;;;1.25;;
12141;SDS011;6134;59.284;18.022;2023-02-11T08:33:34;2.92;;;1.40;;
12141;SDS011;6134;59.284;18.022;2023-02-11T08:36:06;3.60;;;1.00;;
12141;SDS011;6134;59.284;18.022;2023-02-11T08:38:35;3.50;;;1.27;;
12141;SDS011;6134;59.284;18.022;2023-02-11T08:41:04;2.78;;;1.52;;
12141;SDS011;6134;59.284;18.022;2023-02-11T08:43:34;3.13;;;1.27;;
12141;SDS011;6134;59.284;18.022;2023-02-11T08:46:04;2.70;;;1.70;;
12141;SDS011;6134;59.284;18.022;2023-02-11T08:48:33;6.40;;;1.20;;
12141;SDS011;6134;59.284;18.022;2023-02-11T08:51:04;2.58;;;1.08;;
12141;SDS011;6134;59.284;18.022;2023-02-11T08:53:33;1.48;;;0.90;;
12141;SDS011;6134;59.284;18.022;2023-02-11T08:56:02;3.38;;;1.60;;
12141;SDS011;6134;59.284;18.022;2023-02-11T08:58:31;3.92;;;1.30;;
12141;SDS011;6134;59.284;18.022;2023-02-11T09:01:00;3.17;;;1.25;;
12141;SDS011;6134;59.284;18.022;2023-02-11T09:03:30;5.50;;;1.35;;
12141;SDS011;6134;59.284;18.022;2023-02-11T09:05:59;2.20;;;1.10;;
12141;SDS011;6134;59.284;18.022;2023-02-11T09:08:28;4.25;;;1.33;;
12141;SDS011;6134;59.284;18.022;2023-02-11T09:10:56;2.78;;;1.48;;
12141;SDS011;6134;59.284;18.022;2023-02-11T09:13:26;5.70;;;1.63;;
12141;SDS011;6134;59.284;18.022;2023-02-11T09:15:54;4.65;;;1.38;;
12141;SDS011;6134;59.284;18.022;2023-02-11T09:18:23;3.55;;;1.50;;
12141;SDS011;6134;59.284;18.022;2023-02-11T09:20:57;5.85;;;1.40;;
12141;SDS011;6134;59.284;18.022;2023-02-11T09:23:28;6.32;;;1.80;;
12141;SDS011;6134;59.284;18.022;2023-02-11T09:25:59;4.75;;;1.33;;
12141;SDS011;6134;59.284;18.022;2023-02-11T09:28:35;1.85;;;1.17;;
12141;SDS011;6134;59.284;18.022;2023-02-11T09:31:04;4.30;;;1.30;;
12141;SDS011;6134;59.284;18.022;2023-02-11T09:33:33;2.85;;;1.20;;
12141;SDS011;6134;59.284;18.022;2023-02-11T09:36:04;4.13;;;1.55;;
12141;SDS011;6134;59.284;18.022;2023-02-11T09:38:33;5.65;;;1.52;;
12141;SDS011;6134;59.284;18.022;2023-02-11T09:41:02;4.03;;;1.60;;
12141;SDS011;6134;59.284;18.022;2023-02-11T09:43:35;3.65;;;1.73;;
12141;SDS011;6134;59.284;18.022;2023-02-11T09:46:04;2.33;;;1.20;;
12141;SDS011;6134;59.284;18.022;2023-02-11T09:48:36;5.10;;;1.45;;
12141;SDS011;6134;59.284;18.022;2023-02-11T09:51:13;3.50;;;1.20;;
12141;SDS011;6134;59.284;18.022;2023-02-11T09:53:43;2.25;;;1.15;;
12141;SDS011;6134;59.284;18.022;2023-02-11T09:56:13;4.25;;;1.48;;
12141;SDS011;6134;59.284;18.022;2023-02-11T09:58:43;3.67;;;1.30;;
12141;SDS011;6134;59.284;18.022;2023-02-11T10:01:14;4.95;;;1.30;;
12141;SDS011;6134;59.284;18.022;2023-02-11T10:03:50;4.85;;;1.20;;
12141;SDS011;6134;59.284;18.022;2023-02-11T10:06:29;2.75;;;1.45;;
12141;SDS011;6134;59.284;18.022;2023-02-11T10:09:01;2.97;;;1.20;;
12141;SDS011;6134;59.284;18.022;2023-02-11T10:11:34;2.05;;;1.30;;
12141;SDS011;6134;59.284;18.022;2023-02-11T10:14:11;4.68;;;1.35;;
12141;SDS011;6134;59.284;18.022;2023-02-11T10:16:50;1.27;;;0.90;;
12141;SDS011;6134;59.284;18.022;2023-02-11T10:19:25;5.25;;;1.52;;
12141;SDS011;6134;59.284;18.022;2023-02-11T10:22:01;7.32;;;1.58;;
12141;SDS011;6134;59.284;18.022;2023-02-11T10:24:33;4.95;;;1.70;;
12141;SDS011;6134;59.284;18.022;2023-02-11T10:27:05;5.43;;;1.70;;
12141;SDS011;6134;59.284;18.022;2023-02-11T10:29:40;4.53;;;1.17;;
12141;SDS011;6134;59.284;18.022;2023-02-11T10:32:13;3.45;;;1.50;;
12141;SDS011;6134;59.284;18.022;2023-02-11T10:34:43;5.18;;;1.30;;
12141;SDS011;6134;59.284;18.022;2023-02-11T10:37:13;5.03;;;1.50;;
12141;SDS011;6134;59.284;18.022;2023-02-11T10:39:41;4.88;;;1.58;;
12141;SDS011;6134;59.284;18.022;2023-02-11T10:42:11;3.42;;;1.23;;
12141;SDS011;6134;59.284;18.022;2023-02-11T10:44:41;3.97;;;1.42;;
12141;SDS011;6134;59.284;18.022;2023-02-11T10:47:11;5.03;;;1.55;;
12141;SDS011;6134;59.284;18.022;2023-02-11T10:49:42;6.68;;;1.98;;
12141;SDS011;6134;59.284;18.022;2023-02-11T10:52:13;5.60;;;1.55;;
12141;SDS011;6134;59.284;18.022;2023-02-11T10:54:53;4.43;;;1.23;;
12141;SDS011;6134;59.284;18.022;2023-02-11T10:57:22;5.47;;;1.27;;
12141;SDS011;6134;59.284;18.022;2023-02-11T10:59:56;5.70;;;1.70;;
12141;SDS011;6134;59.284;18.022;2023-02-11T11:02:27;2.75;;;1.50;;
12141;SDS011;6134;59.284;18.022;2023-02-11T11:04:59;3.70;;;1.33;;
12141;SDS011;6134;59.284;18.022;2023-02-11T11:07:30;2.15;;;1.33;;
12141;SDS011;6134;59.284;18.022;2023-02-11T11:10:00;2.58;;;1.30;;
12141;SDS011;6134;59.284;18.022;2023-02-11T11:12:31;4.57;;;1.67;;
12141;SDS011;6134;59.284;18.022;2023-02-11T11:15:01;2.97;;;1.30;;
12141;SDS011;6134;59.284;18.022;2023-02-11T11:17:30;4.72;;;1.70;;
12141;SDS011;6134;59.284;18.022;2023-02-11T11:20:18;4.28;;;1.40;;
12141;SDS011;6134;59.284;18.022;2023-02-11T11:22:49;3.70;;;1.48;;
12141;SDS011;6134;59.284;18.022;2023-02-11T11:25:22;4.25;;;1.50;;
12141;SDS011;6134;59.284;18.022;2023-02-11T11:27:52;4.63;;;1.48;;
12141;SDS011;6134;59.284;18.022;2023-02-11T11:30:22;2.25;;;1.10;;
12141;SDS011;6134;59.284;18.022;2023-02-11T11:32:52;4.85;;;1.60;;
12141;SDS011;6134;59.284;18.022;2023-02-11T11:35:23;4.53;;;1.83;;
12141;SDS011;6134;59.284;18.022;2023-02-11T11:37:54;3.70;;;1.60;;
12141;SDS011;6134;59.284;18.022;2023-02-11T11:40:27;4.15;;;1.70;;
12141;SDS011;6134;59.284;18.022;2023-02-11T11:43:04;2.95;;;1.33;;
12141;SDS011;6134;59.284;18.022;2023-02-11T11:45:33;4.00;;;1.20;;
12141;SDS011;6134;59.284;18.022;2023-02-11T11:48:03;2.47;;;1.27;;
12141;SDS011;6134;59.284;18.022;2023-02-11T11:50:34;2.47;;;1.23;;
12141;SDS011;6134;59.284;18.022;2023-02-11T11:53:06;5.00;;;1.52;;
12141;SDS011;6134;59.284;18.022;2023-02-11T11:55:38;3.67;;;1.30;;
12141;SDS011;6134;59.284;18.022;2023-02-11T11:58:09;3.95;;;1.30;;
12141;SDS011;6134;59.284;18.022;2023-02-11T12:00:43;5.55;;;1.38;;
12141;SDS011;6134;59.284;18.022;2023-02-11T12:03:18;3.53;;;1.23;;
12141;SDS011;6134;59.284;18.022;2023-02-11T12:05:51;5.05;;;1.60;;
12141;SDS011;6134;59.284;18.022;2023-02-11T12:08:29;3.97;;;1.45;;
12141;SDS011;6134;59.284;18.022;2023-02-11T12:11:06;4.05;;;1.65;;
12141;SDS011;6134;59.284;18.022;2023-02-11T12:13:42;4.97;;;1.40;;
12141;SDS011;6134;59.284;18.022;2023-02-11T12:16:21;3.50;;;1.50;;
12141;SDS011;6134;59.284;18.022;2023-02-11T12:19:08;2.38;;;1.20;;
12141;SDS011;6134;59.284;18.022;2023-02-11T12:21:39;2.95;;;1.20;;
12141;SDS011;6134;59.284;18.022;2023-02-11T12:24:17;4.75;;;1.65;;
12141;SDS011;6134;59.284;18.022;2023-02-11T12:26:51;3.58;;;1.40;;
12141;SDS011;6134;59.284;18.022;2023-02-11T12:29:24;3.05;;;1.42;;
12141;SDS011;6134;59.284;18.022;2023-02-11T12:31:59;6.22;;;1.30;;
12141;SDS011;6134;59.284;18.022;2023-02-11T12:34:41;2.83;;;1.20;;
12141;SDS011;6134;59.284;18.022;2023-02-11T12:37:17;4.57;;;1.38;;
12141;SDS011;6134;59.284;18.022;2023-02-11T12:39:50;3.70;;;1.45;;
12141;SDS011;6134;59.284;18.022;2023-02-11T12:42:33;3.72;;;1.27;;
12141;SDS011;6134;59.284;18.022;2023-02-11T12:45:34;2.25;;;1.20;;
12141;SDS011;6134;59.284;18.022;2023-02-11T12:48:09;2.25;;;1.27;;
12141;SDS011;6134;59.284;18.022;2023-02-11T12:50:43;2.33;;;1.15;;
12141;SDS011;6134;59.284;18.022;2023-02-11T12:53:22;4.40;;;1.48;;
12141;SDS011;6134;59.284;18.022;2023-02-11T12:55:57;2.75;;;1.38;;
12141;SDS011;6134;59.284;18.022;2023-02-11T12:58:27;3.45;;;1.30;;
12141;SDS011;6134;59.284;18.022;2023-02-11T13:01:13;3.33;;;1.23;;
12141;SDS011;6134;59.284;18.022;2023-02-11T13:03:45;1.77;;;1.25;;
12141;SDS011;6134;59.284;18.022;2023-02-11T13:06:15;3.63;;;1.52;;
12141;SDS011;6134;59.284;18.022;2023-02-11T13:08:47;1.83;;;1.20;;
12141;SDS011;6134;59.284;18.022;2023-02-11T13:11:19;5.93;;;1.58;;
12141;SDS011;6134;59.284;18.022;2023-02-11T13:13:50;2.25;;;1.40;;
12141;SDS011;6134;59.284;18.022;2023-02-11T13:16:24;3.90;;;1.30;;
12141;SDS011;6134;59.284;18.022;2023-02-11T13:18:58;3.55;;;1.60;;
12141;SDS011;6134;59.284;18.022;2023-02-11T13:21:35;5.07;;;1.67;;
12141;SDS011;6134;59.284;18.022;2023-02-11T13:24:08;5.18;;;1.70;;
12141;SDS011;6134;59.284;18.022;2023-02-11T13:26:41;4.82;;;1.65;;
12141;SDS011;6134;59.284;18.022;2023-02-11T13:29:20;3.83;;;1.25;;
12141;SDS011;6134;59.284;18.022;2023-02-11T13:31:51;4.50;;;1.42;;
12141;SDS011;6134;59.284;18.022;2023-02-11T13:34:24;2.95;;;1.20;;
12141;SDS011;6134;59.284;18.022;2023-02-11T13:36:54;6.32;;;1.63;;
12141;SDS011;6134;59.284;18.022;2023-02-11T13:39:22;5.50;;;1.30;;
12141;SDS011;6134;59.284;18.022;2023-02-11T13:41:53;2.20;;;1.58;;
12141;SDS011;6134;59.284;18.022;2023-02-11T13:44:29;2.88;;;1.10;;
12141;SDS011;6134;59.284;18.022;2023-02-11T13:47:01;4.20;;;1.20;;
12141;SDS011;6134;59.284;18.022;2023-02-11T13:49:33;3.08;;;1.10;;
12141;SDS011;6134;59.284;18.022;2023-02-11T13:52:03;3.50;;;1.33;;
12141;SDS011;6134;59.284;18.022;2023-02-11T13:54:33;4.93;;;1.42;;
12141;SDS011;6134;59.284;18.022;2023-02-11T13:59:54;3.53;;;1.23;;
12141;SDS011;6134;59.284;18.022;2023-02-11T14:02:24;2.70;;;1.17;;
12141;SDS011;6134;59.284;18.022;2023-02-11T14:05:18;2.78;;;1.25;;
12141;SDS011;6134;59.284;18.022;2023-02-11T14:08:15;3.70;;;1.35;;
12141;SDS011;6134;59.284;18.022;2023-02-11T14:11:05;2.88;;;1.83;;
12141;SDS011;6134;59.284;18.022;2023-02-11T14:16:26;2.95;;;1.30;;
12141;SDS011;6134;59.284;18.022;2023-02-11T14:19:04;3.17;;;1.38;;
12141;SDS011;6134;59.284;18.022;2023-02-11T14:21:34;3.65;;;1.35;;
12141;SDS011;6134;59.284;18.022;2023-02-11T14:26:53;3.53;;;1.40;;
12141;SDS011;6134;59.284;18.022;2023-02-11T14:29:25;3.65;;;1.08;;
12141;SDS011;6134;59.284;18.022;2023-02-11T14:31:59;1.95;;;1.00;;
12141;SDS011;6134;59.284;18.022;2023-02-11T14:34:37;4.82;;;1.20;;
12141;SDS011;6134;59.284;18.022;2023-02-11T14:37:11;2.63;;;1.80;;
12141;SDS011;6134;59.284;18.022;2023-02-11T14:42:28;3.53;;;1.80;;
12141;SDS011;6134;59.284;18.022;2023-02-11T14:45:02;4.82;;;1.98;;
12141;SDS011;6134;59.284;18.022;2023-02-11T14:47:35;3.47;;;1.88;;
12141;SDS011;6134;59.284;18.022;2023-02-11T14:50:10;4.88;;;1.70;;
12141;SDS011;6134;59.284;18.022;2023-02-11T14:52:41;4.60;;;1.55;;
12141;SDS011;6134;59.284;18.022;2023-02-11T14:55:14;6.75;;;2.30;;
12141;SDS011;6134;59.284;18.022;2023-02-11T14:57:46;3.78;;;1.70;;
12141;SDS011;6134;59.284;18.022;2023-02-11T15:00:17;3.22;;;2.05;;
12141;SDS011;6134;59.284;18.022;2023-02-11T15:02:47;5.28;;;3.42;;
12141;SDS011;6134;59.284;18.022;2023-02-11T15:05:18;3.13;;;1.55;;
12141;SDS011;6134;59.284;18.022;2023-02-11T15:07:48;2.67;;;1.15;;
12141;SDS011;6134;59.284;18.022;2023-02-11T15:10:18;6.88;;;4.38;;
12141;SDS011;6134;59.284;18.022;2023-02-11T15:12:51;5.65;;;3.50;;
12141;SDS011;6134;59.284;18.022;2023-02-11T15:15:20;3.47;;;1.55;;
12141;SDS011;6134;59.284;18.022;2023-02-11T15:17:50;3.72;;;1.15;;
12141;SDS011;6134;59.284;18.022;2023-02-11T15:20:20;3.95;;;1.33;;
12141;SDS011;6134;59.284;18.022;2023-02-11T15:22:50;2.92;;;1.27;;
12141;SDS011;6134;59.284;18.022;2023-02-11T15:25:21;4.40;;;1.45;;
12141;SDS011;6134;59.284;18.022;2023-02-11T15:27:50;3.95;;;1.55;;
12141;SDS011;6134;59.284;18.022;2023-02-11T15:30:23;3.33;;;2.50;;
12141;SDS011;6134;59.284;18.022;2023-02-11T15:32:54;4.70;;;1.65;;